Time;durP1;ratioP1;P1;durP2;ratioP2;P2;SDS_P1;SDS_P2;PMS_P1;PMS_P2;Temp;Humidity;BMP_temperature;BMP_pressure;BME280_temperature;BME280_humidity;BME280_pressure;Samples;Min_cycle;Max_cycle;Signal;HPM_P1;HPM_P2
2024/01/18 00:00:06;;;;;;;18.75;14.07;;;2.60;99.90;;;;;;5012654;28;20030;-44
2024/01/18 00:02:31;;;;;;;20.73;14.77;;;2.60;99.90;;;;;;5012860;28;20030;-43
2024/01/18 00:04:57;;;;;;;20.17;14.05;;;2.60;99.90;;;;;;5012669;28;20442;-49
2024/01/18 00:07:22;;;;;;;18.05;13.68;;;2.60;99.90;;;;;;5012532;28;20246;-44
2024/01/18 00:09:48;;;;;;;18.55;12.52;;;2.60;99.90;;;;;;5012786;28;20087;-49
2024/01/18 00:12:13;;;;;;;19.63;12.82;;;2.50;99.90;;;;;;5012672;28;20030;-46
2024/01/18 00:14:39;;;;;;;19.05;12.45;;;2.50;99.90;;;;;;5012344;28;20044;-44
2024/01/18 00:17:04;;;;;;;16.90;12.20;;;2.40;99.90;;;;;;5012970;28;20233;-47
2024/01/18 00:19:30;;;;;;;16.15;11.57;;;2.40;99.90;;;;;;5011626;28;20029;-46
2024/01/18 00:21:55;;;;;;;17.23;12.52;;;2.30;99.90;;;;;;5012250;28;20026;-44
2024/01/18 00:24:21;;;;;;;17.48;12.75;;;2.30;99.90;;;;;;5012075;28;20034;-45
2024/01/18 00:26:46;;;;;;;20.50;12.13;;;2.20;99.90;;;;;;5011044;28;20128;-45
2024/01/18 00:29:12;;;;;;;15.57;11.40;;;2.20;99.90;;;;;;5012120;28;20026;-44
2024/01/18 00:31:37;;;;;;;17.45;11.30;;;2.10;99.90;;;;;;5012263;28;20018;-47
2024/01/18 00:34:03;;;;;;;15.55;11.65;;;2.00;99.90;;;;;;5012301;28;20064;-44
2024/01/18 00:36:28;;;;;;;15.45;11.27;;;2.10;99.90;;;;;;5012069;28;20517;-43
2024/01/18 00:38:54;;;;;;;44.25;25.25;;;2.10;99.90;;;;;;5011372;28;20022;-44
2024/01/18 00:41:20;;;;;;;39.83;23.48;;;2.00;99.90;;;;;;5012229;28;20299;-44
2024/01/18 00:43:49;;;;;;;17.10;11.50;;;2.10;99.90;;;;;;5011921;28;20109;-44
2024/01/18 00:46:18;;;;;;;14.95;10.05;;;2.00;99.90;;;;;;5012472;28;20026;-45
2024/01/18 00:48:44;;;;;;;14.43;11.13;;;2.00;99.90;;;;;;5011846;28;20025;-43
2024/01/18 00:51:09;;;;;;;13.63;10.23;;;2.00;99.90;;;;;;5012411;28;20025;-43
2024/01/18 00:53:35;;;;;;;16.85;11.15;;;2.00;99.90;;;;;;5012039;28;20076;-43
2024/01/18 00:56:00;;;;;;;12.25;9.52;;;2.00;99.90;;;;;;5012184;28;20108;-44
2024/01/18 00:58:26;;;;;;;15.68;11.90;;;2.00;99.90;;;;;;5012111;28;20036;-43
2024/01/18 01:00:51;;;;;;;12.40;9.20;;;1.90;99.90;;;;;;5012604;28;20054;-46
2024/01/18 01:03:17;;;;;;;13.85;9.80;;;2.00;99.90;;;;;;5012937;28;20053;-42
2024/01/18 01:05:42;;;;;;;13.57;9.73;;;2.00;99.90;;;;;;5011396;28;20044;-44
2024/01/18 01:08:08;;;;;;;12.77;9.32;;;1.90;99.90;;;;;;5012130;28;20030;-48
2024/01/18 01:10:33;;;;;;;15.52;10.52;;;1.90;99.90;;;;;;5012516;28;20018;-47
2024/01/18 01:12:59;;;;;;;14.43;9.90;;;1.90;99.90;;;;;;5012370;28;20372;-46
2024/01/18 01:15:24;;;;;;;13.45;9.88;;;2.00;99.90;;;;;;5012355;28;20041;-45
2024/01/18 01:17:50;;;;;;;14.23;9.93;;;1.90;99.90;;;;;;5011984;28;20061;-44
2024/01/18 01:20:15;;;;;;;13.02;10.02;;;2.00;99.90;;;;;;5012264;28;20491;-46
2024/01/18 01:22:40;;;;;;;16.25;10.25;;;2.00;99.90;;;;;;5011099;28;20037;-44
2024/01/18 01:25:07;;;;;;;14.05;9.68;;;2.00;99.90;;;;;;5012308;28;20035;-45
2024/01/18 01:27:32;;;;;;;11.75;9.43;;;2.00;99.90;;;;;;5011759;28;20018;-44
2024/01/18 01:29:58;;;;;;;14.32;9.88;;;2.10;99.90;;;;;;5011938;28;20037;-51
2024/01/18 01:32:24;;;;;;;13.00;9.63;;;2.10;99.90;;;;;;5012048;28;20499;-44
2024/01/18 01:34:50;;;;;;;17.00;10.40;;;2.10;99.90;;;;;;5011573;28;20022;-45
2024/01/18 01:37:16;;;;;;;13.13;9.50;;;2.20;99.90;;;;;;5009926;28;20037;-47
2024/01/18 01:39:41;;;;;;;12.30;8.90;;;2.20;99.90;;;;;;5011382;28;20026;-47
2024/01/18 01:42:08;;;;;;;14.95;9.75;;;2.10;99.90;;;;;;5011340;28;20026;-47
2024/01/18 01:44:34;;;;;;;14.20;9.55;;;2.20;99.90;;;;;;5011377;28;20439;-44
2024/01/18 01:46:59;;;;;;;13.40;10.55;;;2.20;99.90;;;;;;5011102;28;20101;-45
2024/01/18 01:49:25;;;;;;;11.88;8.75;;;2.20;99.90;;;;;;5011309;28;20030;-46
2024/01/18 01:51:52;;;;;;;11.90;8.52;;;2.30;99.90;;;;;;5011312;28;20100;-45
2024/01/18 01:54:20;;;;;;;12.85;8.73;;;2.20;99.90;;;;;;5011317;28;20399;-44
2024/01/18 01:56:50;;;;;;;10.75;7.50;;;2.10;99.90;;;;;;5011148;28;20030;-46
2024/01/18 01:59:17;;;;;;;13.15;8.80;;;1.90;99.90;;;;;;5011353;28;20045;-45
2024/01/18 02:01:45;;;;;;;10.57;7.35;;;1.80;99.90;;;;;;5011313;28;20479;-44
2024/01/18 02:04:11;;;;;;;12.80;8.68;;;1.80;99.90;;;;;;5011226;28;20050;-45
2024/01/18 02:06:39;;;;;;;11.38;8.00;;;1.70;99.90;;;;;;5011100;28;20073;-45
2024/01/18 02:09:05;;;;;;;10.40;7.43;;;1.70;99.90;;;;;;5011155;28;20030;-45
2024/01/18 02:11:31;;;;;;;10.10;7.80;;;1.60;99.90;;;;;;5011358;28;20396;-44
2024/01/18 02:13:57;;;;;;;11.13;8.27;;;1.60;99.90;;;;;;5011066;28;20471;-44
2024/01/18 02:16:23;;;;;;;10.00;8.07;;;1.60;99.90;;;;;;5010975;28;20034;-44
2024/01/18 02:18:49;;;;;;;13.10;7.07;;;1.50;99.90;;;;;;5012497;28;20525;-44
2024/01/18 02:21:15;;;;;;;10.27;7.25;;;1.60;99.90;;;;;;5012680;28;20030;-45
2024/01/18 02:23:48;;;;;;;9.00;7.10;;;1.60;99.90;;;;;;5013289;28;20033;-45
2024/01/18 02:26:13;;;;;;;8.95;6.75;;;1.60;99.90;;;;;;5014474;28;20037;-46
2024/01/18 02:28:53;;;;;;;9.10;7.18;;;1.70;99.90;;;;;;5014655;28;20025;-45
2024/01/18 02:31:18;;;;;;;9.00;7.32;;;1.80;99.90;;;;;;5014708;28;20491;-49
2024/01/18 02:33:44;;;;;;;8.45;6.03;;;1.80;99.90;;;;;;5014507;28;20037;-44
2024/01/18 02:36:09;;;;;;;9.65;6.75;;;1.80;99.90;;;;;;5014131;28;20049;-46
2024/01/18 02:38:35;;;;;;;9.90;6.97;;;1.80;99.90;;;;;;5014502;28;20879;-44
2024/01/18 02:41:01;;;;;;;10.68;7.13;;;1.90;99.90;;;;;;5013208;28;20048;-44
2024/01/18 02:43:26;;;;;;;9.45;7.03;;;1.90;99.90;;;;;;5014334;28;20026;-45
2024/01/18 02:45:52;;;;;;;9.18;6.70;;;1.80;99.90;;;;;;5014442;28;20506;-44
2024/01/18 02:48:17;;;;;;;12.20;7.68;;;1.90;99.90;;;;;;5013891;28;20030;-45
2024/01/18 02:50:43;;;;;;;11.27;7.32;;;1.70;99.90;;;;;;5014182;28;20025;-45
2024/01/18 02:53:08;;;;;;;8.68;6.30;;;1.70;99.90;;;;;;5012966;28;20022;-44
2024/01/18 02:55:34;;;;;;;10.23;7.03;;;1.70;99.90;;;;;;5012817;28;20053;-44
2024/01/18 02:57:59;;;;;;;10.40;7.28;;;1.70;99.90;;;;;;5014444;28;20490;-46
2024/01/18 03:00:25;;;;;;;11.35;7.13;;;1.70;99.90;;;;;;5014280;28;20080;-43
2024/01/18 03:02:50;;;;;;;8.98;6.50;;;1.40;99.90;;;;;;5012803;28;20034;-44
2024/01/18 03:05:16;;;;;;;13.13;8.18;;;1.70;99.90;;;;;;5013841;28;20026;-46
2024/01/18 03:07:41;;;;;;;13.23;8.88;;;1.60;99.90;;;;;;5012620;28;20079;-45
2024/01/18 03:10:08;;;;;;;14.07;8.00;;;1.60;99.90;;;;;;5012911;28;20080;-45
2024/01/18 03:12:37;;;;;;;9.32;7.13;;;1.50;99.90;;;;;;5014064;28;20021;-44
2024/01/18 03:15:09;;;;;;;8.52;5.93;;;1.40;99.90;;;;;;5013757;28;20026;-44
2024/01/18 03:17:34;;;;;;;7.57;5.63;;;1.40;99.90;;;;;;5013545;28;20025;-43
2024/01/18 03:20:00;;;;;;;9.30;5.93;;;1.30;99.90;;;;;;5013777;28;20026;-43
2024/01/18 03:22:25;;;;;;;10.60;6.03;;;1.30;99.90;;;;;;5013232;28;20057;-43
2024/01/18 03:24:50;;;;;;;10.27;6.05;;;1.30;99.90;;;;;;5014235;28;20057;-43
2024/01/18 03:27:19;;;;;;;9.32;6.10;;;1.30;99.90;;;;;;5012678;28;20029;-43
2024/01/18 03:29:44;;;;;;;11.48;5.40;;;1.30;99.90;;;;;;5014530;28;20449;-42
2024/01/18 03:32:09;;;;;;;8.65;5.75;;;1.30;99.90;;;;;;5013660;28;20013;-43
2024/01/18 03:34:35;;;;;;;8.50;5.30;;;1.30;99.90;;;;;;5013241;28;20384;-43
2024/01/18 03:37:00;;;;;;;6.38;5.15;;;1.30;99.90;;;;;;5013250;28;20105;-45
2024/01/18 03:39:26;;;;;;;9.82;5.57;;;1.30;99.90;;;;;;5013451;28;20487;-44
2024/01/18 03:41:52;;;;;;;9.23;5.95;;;1.30;99.90;;;;;;5013631;28;20038;-44
2024/01/18 03:44:19;;;;;;;9.63;5.00;;;1.40;99.90;;;;;;5013414;28;20589;-44
2024/01/18 03:46:45;;;;;;;7.10;5.85;;;1.40;99.90;;;;;;5013058;28;20106;-43
2024/01/18 03:49:10;;;;;;;7.25;4.63;;;1.40;99.90;;;;;;5013106;28;20116;-46
2024/01/18 03:51:35;;;;;;;7.63;4.75;;;1.40;99.90;;;;;;5013126;28;20018;-43
2024/01/18 03:54:01;;;;;;;6.53;4.78;;;1.30;99.90;;;;;;5013018;28;20025;-46
2024/01/18 03:56:26;;;;;;;10.13;5.88;;;1.20;99.90;;;;;;5012773;28;20026;-44
2024/01/18 03:58:52;;;;;;;6.15;5.28;;;1.40;99.90;;;;;;5013044;28;20384;-44
2024/01/18 04:01:17;;;;;;;8.35;5.25;;;1.30;99.90;;;;;;5012919;28;20021;-44
2024/01/18 04:03:43;;;;;;;10.45;5.20;;;1.30;99.90;;;;;;5012745;28;20029;-43
2024/01/18 04:06:11;;;;;;;6.10;5.22;;;1.30;99.90;;;;;;5012729;28;20026;-43
2024/01/18 04:08:38;;;;;;;6.15;5.25;;;1.30;99.90;;;;;;5012756;28;20483;-44
2024/01/18 04:11:04;;;;;;;8.90;5.22;;;1.30;99.90;;;;;;5012799;28;20022;-44
2024/01/18 04:13:29;;;;;;;7.32;4.90;;;1.30;99.90;;;;;;5012737;28;20037;-43
2024/01/18 04:15:55;;;;;;;6.30;4.60;;;1.30;99.90;;;;;;5012425;28;20481;-46
2024/01/18 04:18:20;;;;;;;6.95;4.63;;;1.30;99.90;;;;;;5012317;28;20030;-44
2024/01/18 04:20:46;;;;;;;7.28;4.40;;;1.30;99.90;;;;;;5012634;28;20510;-45
2024/01/18 04:23:11;;;;;;;8.32;4.93;;;1.30;99.90;;;;;;5012556;28;20083;-43
2024/01/18 04:25:37;;;;;;;6.45;4.60;;;1.20;99.90;;;;;;5012554;28;20103;-43
2024/01/18 04:28:03;;;;;;;5.93;4.40;;;1.20;99.90;;;;;;5012109;28;20026;-47
2024/01/18 04:30:28;;;;;;;8.27;5.25;;;1.20;99.90;;;;;;5012433;28;20029;-45
2024/01/18 04:32:53;;;;;;;5.53;4.63;;;1.20;99.90;;;;;;5012271;28;20026;-44
2024/01/18 04:35:19;;;;;;;7.47;5.43;;;1.20;99.90;;;;;;5012566;28;20018;-44
2024/01/18 04:37:44;;;;;;;7.70;4.53;;;1.10;99.90;;;;;;5011063;28;20038;-44
2024/01/18 04:40:10;;;;;;;7.63;5.30;;;1.20;99.90;;;;;;5012721;28;20026;-45
2024/01/18 04:42:36;;;;;;;5.28;4.40;;;1.20;99.90;;;;;;5012606;28;20033;-44
2024/01/18 04:45:01;;;;;;;7.85;4.18;;;1.30;99.90;;;;;;5011272;28;20033;-48
2024/01/18 04:47:27;;;;;;;7.82;4.72;;;1.20;99.90;;;;;;5011726;28;20084;-46
2024/01/18 04:49:52;;;;;;;6.35;4.80;;;1.30;99.90;;;;;;5012180;28;20032;-46
2024/01/18 04:52:20;;;;;;;7.97;4.43;;;1.40;99.90;;;;;;5012104;28;20018;-43
2024/01/18 04:54:46;;;;;;;5.50;4.30;;;1.40;99.90;;;;;;5012099;28;20029;-44
2024/01/18 04:57:11;;;;;;;11.30;5.28;;;1.40;99.90;;;;;;5011743;28;20029;-45
2024/01/18 04:59:37;;;;;;;5.97;4.50;;;1.40;99.90;;;;;;5011949;28;20462;-45
2024/01/18 05:02:02;;;;;;;6.47;4.35;;;1.40;99.90;;;;;;5011773;28;20038;-45
2024/01/18 05:04:29;;;;;;;8.88;4.82;;;1.30;99.90;;;;;;5010569;28;20451;-43
2024/01/18 05:06:54;;;;;;;8.82;4.80;;;1.30;99.90;;;;;;5011533;28;20022;-46
2024/01/18 05:09:20;;;;;;;6.28;4.57;;;1.40;99.90;;;;;;5011792;28;20041;-49
2024/01/18 05:11:46;;;;;;;8.95;4.82;;;1.40;99.90;;;;;;5011914;28;20394;-44
2024/01/18 05:14:11;;;;;;;8.48;5.00;;;1.40;99.90;;;;;;5011614;28;20026;-43
2024/01/18 05:16:40;;;;;;;7.57;5.35;;;1.30;99.90;;;;;;5011316;28;20045;-45
2024/01/18 05:19:08;;;;;;;8.73;5.28;;;1.20;99.90;;;;;;5011764;28;20482;-44
2024/01/18 05:21:33;;;;;;;8.25;4.93;;;1.10;99.90;;;;;;5011854;28;20441;-45
2024/01/18 05:23:59;;;;;;;6.80;5.30;;;1.10;99.90;;;;;;5011621;28;20121;-44
2024/01/18 05:26:24;;;;;;;8.85;6.05;;;1.00;99.90;;;;;;5011418;28;20112;-50
2024/01/18 05:28:50;;;;;;;7.60;5.10;;;1.00;99.90;;;;;;5011577;28;20087;-45
2024/01/18 05:31:15;;;;;;;7.28;4.72;;;1.00;99.90;;;;;;5011926;28;20030;-43
2024/01/18 05:33:41;;;;;;;10.32;6.25;;;1.00;99.90;;;;;;5011711;28;20026;-45
2024/01/18 05:36:06;;;;;;;9.13;6.10;;;1.00;99.90;;;;;;5012019;28;20169;-41
2024/01/18 05:38:33;;;;;;;7.13;5.28;;;1.00;99.90;;;;;;5011772;28;20022;-43
2024/01/18 05:40:59;;;;;;;11.15;6.38;;;0.90;99.90;;;;;;5012324;28;20022;-46
2024/01/18 05:43:24;;;;;;;9.05;6.68;;;0.90;99.90;;;;;;5011579;28;20034;-44
2024/01/18 05:45:50;;;;;;;11.48;7.82;;;0.90;99.90;;;;;;5011308;28;20526;-43
2024/01/18 05:48:16;;;;;;;8.30;6.38;;;0.90;99.90;;;;;;5011189;28;20050;-45
2024/01/18 05:50:42;;;;;;;8.43;5.70;;;0.90;99.90;;;;;;5011550;28;20030;-46
2024/01/18 05:53:07;;;;;;;7.55;5.80;;;0.90;99.90;;;;;;5011549;28;20454;-45
2024/01/18 05:55:34;;;;;;;9.60;6.72;;;1.00;99.90;;;;;;5011863;28;20026;-43
2024/01/18 05:58:00;;;;;;;7.65;6.18;;;1.10;99.90;;;;;;5015156;28;20022;-44
2024/01/18 06:00:25;;;;;;;11.13;7.45;;;1.10;99.90;;;;;;5016031;28;20084;-46
2024/01/18 06:02:51;;;;;;;9.75;6.50;;;1.20;99.90;;;;;;5015291;28;20037;-45
2024/01/18 06:05:16;;;;;;;7.50;5.72;;;1.10;99.90;;;;;;5015329;28;20037;-44
2024/01/18 06:07:42;;;;;;;7.57;5.03;;;1.10;99.90;;;;;;5015054;28;20118;-48
2024/01/18 06:10:08;;;;;;;12.50;6.20;;;1.00;99.90;;;;;;5014011;28;20069;-46
2024/01/18 06:12:33;;;;;;;9.90;4.68;;;0.90;99.90;;;;;;5015086;28;20056;-43
2024/01/18 06:14:59;;;;;;;6.00;5.00;;;0.80;99.90;;;;;;5013562;28;20026;-44
2024/01/18 06:17:24;;;;;;;5.63;4.10;;;0.70;99.90;;;;;;5014590;28;20033;-47
2024/01/18 06:19:50;;;;;;;6.68;4.45;;;0.60;99.90;;;;;;5014802;28;20018;-43
2024/01/18 06:22:15;;;;;;;5.80;3.22;;;0.60;99.90;;;;;;5014851;28;20026;-43
2024/01/18 06:24:41;;;;;;;4.55;3.60;;;0.50;99.90;;;;;;5014961;28;20037;-46
2024/01/18 06:27:06;;;;;;;9.68;4.82;;;0.50;99.90;;;;;;5014966;28;20017;-43
2024/01/18 06:29:35;;;;;;;4.93;3.58;;;0.30;99.90;;;;;;5014659;28;20380;-45
2024/01/18 06:32:02;;;;;;;7.25;3.60;;;0.30;99.90;;;;;;5014585;28;20109;-43
2024/01/18 06:34:28;;;;;;;6.20;4.13;;;;;;;;;;5014678;28;20034;-47
2024/01/18 06:36:53;;;;;;;4.47;3.80;;;0.10;99.90;;;;;;5014242;28;20475;-39
2024/01/18 06:39:19;;;;;;;5.47;4.15;;;0.00;99.90;;;;;;5014731;28;20080;-45
2024/01/18 06:41:44;;;;;;;4.82;4.18;;;0.00;99.90;;;;;;5013762;28;20553;-42
2024/01/18 06:44:10;;;;;;;3.35;2.90;;;0.00;99.90;;;;;;5014229;28;20025;-46
2024/01/18 06:46:36;;;;;;;4.15;3.20;;;0.00;99.90;;;;;;5014032;28;20101;-46
2024/01/18 06:49:01;;;;;;;3.63;3.10;;;-0.10;99.90;;;;;;5013141;28;20378;-44
2024/01/18 06:51:28;;;;;;;3.25;2.95;;;-0.20;99.90;;;;;;5013026;28;20030;-48
2024/01/18 06:53:54;;;;;;;7.68;3.47;;;-0.20;99.90;;;;;;5014136;28;20441;-43
2024/01/18 06:56:19;;;;;;;8.43;3.65;;;-0.30;99.90;;;;;;5013920;28;20034;-45
2024/01/18 06:58:45;;;;;;;3.70;3.40;;;-0.30;99.90;;;;;;5014035;28;20030;-45
2024/01/18 07:01:12;;;;;;;7.03;3.90;;;-0.40;99.90;;;;;;5014070;28;20060;-45
2024/01/18 07:03:37;;;;;;;4.68;3.65;;;-0.40;99.90;;;;;;5013966;28;20022;-43
2024/01/18 07:06:04;;;;;;;3.90;3.55;;;-0.40;99.90;;;;;;5013837;28;20018;-46
2024/01/18 07:08:30;;;;;;;4.72;3.97;;;-0.40;99.90;;;;;;5012657;28;20103;-43
2024/01/18 07:10:56;;;;;;;5.82;4.18;;;-0.50;99.90;;;;;;5013791;28;20427;-44
2024/01/18 07:13:21;;;;;;;10.95;4.13;;;-0.50;99.90;;;;;;5013711;28;20037;-46
2024/01/18 07:15:47;;;;;;;9.60;5.22;;;-0.50;99.90;;;;;;5013707;28;20498;-46
2024/01/18 07:18:13;;;;;;;7.10;3.90;;;-0.50;99.90;;;;;;5013726;28;20458;-45
2024/01/18 07:20:38;;;;;;;7.88;5.68;;;-0.60;99.90;;;;;;5014007;28;20030;-45
2024/01/18 07:23:04;;;;;;;6.93;4.72;;;-0.60;99.90;;;;;;5013747;28;20029;-46
2024/01/18 07:25:29;;;;;;;8.15;4.40;;;-0.50;99.90;;;;;;5013627;28;20486;-44
2024/01/18 07:27:55;;;;;;;7.53;4.35;;;-0.50;99.90;;;;;;5011836;28;20041;-46
2024/01/18 07:30:22;;;;;;;7.35;4.57;;;-0.50;99.90;;;;;;5013653;28;20103;-48
2024/01/18 07:32:48;;;;;;;6.78;4.25;;;;;;;;;;5013507;28;20022;-45
2024/01/18 07:35:14;;;;;;;8.55;4.82;;;-0.30;99.90;;;;;;5014657;28;20053;-47
2024/01/18 07:37:40;;;;;;;7.78;5.38;;;-0.50;99.90;;;;;;5013199;28;20104;-44
2024/01/18 07:40:06;;;;;;;10.65;4.60;;;-0.60;99.90;;;;;;5013525;28;20110;-47
2024/01/18 07:42:32;;;;;;;10.73;6.75;;;-0.60;99.90;;;;;;5013464;28;20057;-46
2024/01/18 07:44:58;;;;;;;7.57;5.07;;;-0.60;99.90;;;;;;5011957;28;20054;-45
2024/01/18 07:47:24;;;;;;;6.15;4.28;;;-0.70;99.90;;;;;;5012911;28;20471;-44
2024/01/18 07:49:50;;;;;;;8.05;4.28;;;-0.70;99.90;;;;;;5013295;28;20054;-44
2024/01/18 07:52:16;;;;;;;7.25;5.10;;;-0.60;99.90;;;;;;5013318;28;20402;-46
2024/01/18 07:54:43;;;;;;;8.68;5.13;;;;;;;;;;5013130;28;20028;-48
2024/01/18 07:57:08;;;;;;;7.70;4.70;;;-0.80;99.90;;;;;;5012730;28;20026;-49
2024/01/18 07:59:34;;;;;;;8.77;5.35;;;-0.80;99.90;;;;;;5011794;28;20064;-44
2024/01/18 08:02:00;;;;;;;12.57;5.55;;;-0.70;99.90;;;;;;5013163;28;20117;-44
2024/01/18 08:04:25;;;;;;;11.80;6.03;;;-0.60;99.90;;;;;;5013057;28;20057;-44
2024/01/18 08:06:51;;;;;;;11.95;6.15;;;-0.70;99.90;;;;;;5012725;28;20045;-44
2024/01/18 08:09:16;;;;;;;10.05;5.40;;;-0.70;99.90;;;;;;5012878;28;20450;-42
2024/01/18 08:11:42;;;;;;;8.75;5.93;;;-0.70;99.90;;;;;;5012676;28;20079;-47
2024/01/18 08:14:07;;;;;;;8.52;5.45;;;-0.70;99.90;;;;;;5012636;28;20117;-44
2024/01/18 08:16:33;;;;;;;11.68;7.45;;;-0.70;99.90;;;;;;5012518;28;20026;-46
2024/01/18 08:18:59;;;;;;;8.48;5.63;;;-0.60;99.90;;;;;;5012830;28;20025;-48
2024/01/18 08:21:24;;;;;;;11.18;6.90;;;-0.70;99.90;;;;;;5012990;28;20025;-44
2024/01/18 08:23:50;;;;;;;11.55;6.97;;;-0.70;99.90;;;;;;5012638;28;20105;-45
2024/01/18 08:26:16;;;;;;;11.98;6.90;;;-0.70;99.90;;;;;;5010978;28;20026;-44
2024/01/18 08:28:43;;;;;;;11.20;6.38;;;-0.60;99.90;;;;;;5012880;28;20606;-44
2024/01/18 08:31:08;;;;;;;10.70;6.65;;;-0.60;99.90;;;;;;5012801;28;20026;-44
2024/01/18 08:33:34;;;;;;;15.05;6.90;;;-0.60;99.90;;;;;;5012789;28;20033;-47
2024/01/18 08:36:00;;;;;;;10.38;6.53;;;-0.60;99.90;;;;;;5011327;28;20095;-46
2024/01/18 08:38:26;;;;;;;12.00;6.70;;;-0.60;99.90;;;;;;5012261;28;20026;-44
2024/01/18 08:40:52;;;;;;;15.05;6.53;;;-0.60;99.90;;;;;;5012306;28;20486;-46
2024/01/18 08:43:19;;;;;;;11.40;6.75;;;-0.60;99.90;;;;;;5027494;28;20029;-49
2024/01/18 08:45:45;;;;;;;9.85;6.85;;;-0.60;99.90;;;;;;5012251;28;20486;-47
2024/01/18 08:48:10;;;;;;;11.27;7.13;;;-0.60;99.90;;;;;;5012057;28;20125;-47
2024/01/18 08:50:37;;;;;;;11.75;6.95;;;-0.50;99.90;;;;;;5012199;28;20083;-47
2024/01/18 08:53:03;;;;;;;14.68;8.32;;;-0.50;99.90;;;;;;5012228;28;20018;-44
2024/01/18 08:55:29;;;;;;;11.27;7.22;;;-0.40;99.90;;;;;;5012506;28;20148;-47
2024/01/18 08:57:54;;;;;;;12.80;7.97;;;-0.40;99.90;;;;;;5012604;28;20077;-45
2024/01/18 09:00:21;;;;;;;9.60;6.57;;;-0.40;99.90;;;;;;5012056;28;20030;-50
2024/01/18 09:02:47;;;;;;;8.85;7.20;;;-0.40;99.90;;;;;;5012924;28;20053;-46
2024/01/18 09:05:13;;;;;;;11.80;5.65;;;-0.40;99.90;;;;;;5011970;28;20123;-45
2024/01/18 09:07:40;;;;;;;13.32;7.57;;;-0.40;99.90;;;;;;5011807;28;20030;-47
2024/01/18 09:10:07;;;;;;;15.57;7.75;;;-0.40;99.90;;;;;;5010549;28;20044;-44
2024/01/18 09:12:32;;;;;;;14.23;7.50;;;-0.40;99.90;;;;;;5012474;28;20549;-45
2024/01/18 09:14:58;;;;;;;12.00;7.00;;;-0.40;99.90;;;;;;5010414;28;20025;-47
2024/01/18 09:17:23;;;;;;;14.02;7.38;;;-0.30;99.90;;;;;;5011507;28;20100;-44
2024/01/18 09:19:49;;;;;;;13.40;8.55;;;-0.30;99.90;;;;;;5011971;28;20168;-45
2024/01/18 09:22:15;;;;;;;14.40;8.27;;;-0.30;99.90;;;;;;5012191;28;20022;-43
2024/01/18 09:24:42;;;;;;;15.38;8.68;;;-0.30;99.90;;;;;;5011560;28;20041;-44
2024/01/18 09:27:09;;;;;;;15.73;7.72;;;-0.30;99.90;;;;;;5010456;28;20396;-44
2024/01/18 09:29:36;;;;;;;13.80;8.75;;;-0.40;99.90;;;;;;5011600;28;20455;-46
2024/01/18 09:32:02;;;;;;;13.75;8.52;;;-0.30;99.90;;;;;;5011119;28;20050;-48
2024/01/18 09:34:28;;;;;;;13.75;9.23;;;-0.30;99.90;;;;;;5011599;28;20105;-50
2024/01/18 09:36:53;;;;;;;19.98;9.75;;;-0.30;99.90;;;;;;5011232;28;20101;-48
2024/01/18 09:39:19;;;;;;;17.00;10.43;;;-0.20;99.90;;;;;;5011607;28;20495;-44
2024/01/18 09:41:52;;;;;;;15.13;8.98;;;-0.20;99.90;;;;;;5011676;28;20160;-45
2024/01/18 09:44:27;;;;;;;18.10;10.15;;;-0.10;99.90;;;;;;5011550;28;20459;-46
2024/01/18 09:46:53;;;;;;;15.40;9.45;;;-0.10;99.90;;;;;;5011655;28;20525;-45
2024/01/18 09:49:19;;;;;;;23.58;10.50;;;0.00;99.90;;;;;;5012262;28;20065;-47
2024/01/18 09:51:46;;;;;;;18.25;10.23;;;-0.10;99.90;;;;;;5010673;28;20053;-45
2024/01/18 09:54:12;;;;;;;18.25;11.10;;;-0.10;99.90;;;;;;5011644;28;20029;-47
2024/01/18 09:56:45;;;;;;;19.52;10.95;;;-0.10;99.90;;;;;;5011152;28;20022;-45
2024/01/18 09:59:18;;;;;;;20.23;10.52;;;0.00;99.90;;;;;;5011967;28;20126;-46
2024/01/18 10:01:44;;;;;;;24.38;12.82;;;0.00;99.90;;;;;;5011127;28;20519;-44
2024/01/18 10:04:17;;;;;;;20.77;11.48;;;0.00;99.90;;;;;;5012033;28;20103;-45
2024/01/18 10:06:43;;;;;;;23.08;13.32;;;0.00;99.90;;;;;;5011712;28;20096;-45
2024/01/18 10:09:14;;;;;;;16.92;10.90;;;0.10;99.90;;;;;;5011380;28;20503;-45
2024/01/18 10:11:41;;;;;;;20.35;12.13;;;0.10;99.90;;;;;;5012114;28;20396;-48
2024/01/18 10:14:07;;;;;;;18.50;11.10;;;0.10;99.90;;;;;;5011257;28;20454;-46
2024/01/18 10:16:36;;;;;;;20.88;11.80;;;0.20;99.90;;;;;;5010661;28;20026;-44
2024/01/18 10:19:06;;;;;;;20.83;11.80;;;0.20;99.90;;;;;;5011406;28;20029;-44
2024/01/18 10:21:34;;;;;;;20.40;13.48;;;0.30;99.90;;;;;;5011405;28;20021;-45
2024/01/18 10:24:01;;;;;;;22.05;12.02;;;0.30;99.90;;;;;;5010104;28;20065;-50
2024/01/18 10:26:31;;;;;;;20.77;11.45;;;0.40;99.90;;;;;;5009821;28;20030;-44
2024/01/18 10:28:58;;;;;;;21.20;12.25;;;;;;;;;;5011442;28;20026;-43
2024/01/18 10:31:24;;;;;;;21.25;11.40;;;;;;;;;;5011192;28;20057;-48
2024/01/18 10:33:51;;;;;;;18.58;10.85;;;;;;;;;;5011492;28;20034;-44
2024/01/18 10:36:18;;;;;;;20.95;11.48;;;;;;;;;;5011070;28;20029;-43
2024/01/18 10:38:43;;;;;;;18.40;11.93;;;0.80;99.90;;;;;;5011616;28;20057;-44
2024/01/18 10:41:09;;;;;;;17.33;10.15;;;0.80;99.90;;;;;;5011894;28;20064;-43
2024/01/18 10:43:35;;;;;;;16.80;10.43;;;1.00;99.90;;;;;;5013057;28;20368;-43
2024/01/18 10:46:02;;;;;;;22.23;10.38;;;0.90;99.90;;;;;;5014066;28;20057;-44
2024/01/18 10:48:29;;;;;;;21.48;10.68;;;1.00;99.90;;;;;;5014252;28;20030;-46
2024/01/18 10:50:56;;;;;;;15.50;10.48;;;1.00;99.90;;;;;;5016321;28;20023;-46
2024/01/18 10:53:24;;;;;;;15.88;9.77;;;1.10;99.90;;;;;;5016357;28;20104;-45
2024/01/18 10:55:51;;;;;;;15.98;10.52;;;1.10;99.90;;;;;;5014326;28;20487;-42
2024/01/18 10:58:16;;;;;;;21.10;10.02;;;1.10;99.90;;;;;;5014016;28;20033;-45
2024/01/18 11:00:42;;;;;;;15.10;8.82;;;;;;;;;;5013165;28;20030;-45
2024/01/18 11:03:09;;;;;;;15.00;8.45;;;1.10;99.90;;;;;;5014958;28;20026;-45
2024/01/18 11:05:35;;;;;;;15.95;8.73;;;1.10;99.90;;;;;;5014672;28;20495;-45
2024/01/18 11:08:05;;;;;;;15.48;9.18;;;1.00;99.90;;;;;;5013887;28;20030;-46
2024/01/18 11:10:32;;;;;;;13.57;8.27;;;1.00;99.90;;;;;;5013920;28;20022;-48
2024/01/18 11:12:58;;;;;;;13.27;7.93;;;1.10;99.90;;;;;;5014546;28;20096;-43
2024/01/18 11:15:24;;;;;;;18.52;8.80;;;1.10;99.90;;;;;;5014278;28;20034;-43
2024/01/18 11:17:51;;;;;;;10.23;7.07;;;1.10;99.90;;;;;;5014356;28;20033;-42
2024/01/18 11:20:17;;;;;;;13.18;8.55;;;1.10;99.90;;;;;;5014804;28;20030;-42
2024/01/18 11:22:43;;;;;;;14.27;7.28;;;1.10;99.90;;;;;;5014154;28;20101;-47
2024/01/18 11:25:12;;;;;;;9.40;6.75;;;1.10;99.90;;;;;;5013878;28;20360;-44
2024/01/18 11:27:41;;;;;;;12.18;7.50;;;1.10;99.90;;;;;;5013499;28;20100;-49
2024/01/18 11:30:10;;;;;;;15.20;7.90;;;1.10;99.90;;;;;;5013610;28;20022;-46
2024/01/18 11:32:37;;;;;;;15.68;7.53;;;1.20;99.90;;;;;;5013577;28;20076;-49
2024/01/18 11:35:08;;;;;;;13.30;8.02;;;1.20;99.90;;;;;;5013687;28;20518;-45
2024/01/18 11:37:35;;;;;;;11.70;7.80;;;1.40;99.90;;;;;;5013482;28;20026;-50
2024/01/18 11:40:00;;;;;;;10.40;6.70;;;1.40;99.90;;;;;;5014043;28;20090;-45
2024/01/18 11:42:30;;;;;;;12.05;7.32;;;1.50;99.90;;;;;;5013932;28;20034;-47
2024/01/18 11:44:56;;;;;;;17.60;6.45;;;1.60;99.90;;;;;;5013624;28;20022;-47
2024/01/18 11:47:23;;;;;;;12.45;6.93;;;1.60;99.90;;;;;;5013143;28;20033;-44
2024/01/18 11:49:49;;;;;;;18.58;7.18;;;1.60;99.90;;;;;;5012789;28;20033;-44
2024/01/18 11:52:16;;;;;;;12.40;6.97;;;1.70;99.90;;;;;;5013384;28;20022;-51
2024/01/18 11:54:43;;;;;;;15.23;7.80;;;1.70;99.90;;;;;;5010763;28;20118;-44
2024/01/18 11:57:14;;;;;;;8.68;6.30;;;1.70;99.90;;;;;;5012725;28;20020;-48
2024/01/18 11:59:44;;;;;;;13.43;7.13;;;1.90;99.90;;;;;;5013259;28;20061;-44
2024/01/18 12:02:13;;;;;;;11.73;6.97;;;2.00;99.90;;;;;;5013036;28;20022;-48
2024/01/18 12:04:39;;;;;;;11.07;6.63;;;2.10;99.90;;;;;;5012720;28;20049;-45
2024/01/18 12:07:06;;;;;;;10.93;6.72;;;2.10;99.90;;;;;;5012276;28;20067;-44
2024/01/18 12:09:32;;;;;;;12.75;6.75;;;2.20;99.90;;;;;;5012710;28;20094;-43
2024/01/18 12:11:59;;;;;;;13.20;6.75;;;2.30;99.90;;;;;;5005130;28;20515;-44
2024/01/18 12:14:25;;;;;;;15.02;7.60;;;2.40;99.90;;;;;;4993077;28;20080;-45
2024/01/18 12:16:50;;;;;;;12.07;6.90;;;2.40;99.90;;;;;;4993136;28;20542;-44
2024/01/18 12:19:35;;;;;;;11.00;7.05;;;;;;;;;;4993685;28;20065;-43
2024/01/18 12:22:02;;;;;;;12.93;7.65;;;2.50;99.90;;;;;;4992869;28;20100;-46
2024/01/18 12:24:27;;;;;;;18.60;7.85;;;2.60;99.90;;;;;;4992753;28;20030;-48
2024/01/18 12:26:53;;;;;;;14.25;6.25;;;2.70;99.90;;;;;;4991570;28;20495;-41
2024/01/18 12:29:20;;;;;;;13.18;6.43;;;2.80;99.90;;;;;;4992940;28;20507;-44
2024/01/18 12:31:46;;;;;;;9.80;6.68;;;2.80;99.90;;;;;;4993066;28;20029;-45
2024/01/18 12:34:12;;;;;;;16.08;8.10;;;3.00;99.90;;;;;;4992702;28;20026;-48
2024/01/18 12:36:39;;;;;;;14.27;7.75;;;3.10;99.90;;;;;;4992491;28;20018;-49
2024/01/18 12:39:04;;;;;;;13.25;9.27;;;3.20;99.90;;;;;;4992777;28;20026;-45
2024/01/18 12:41:30;;;;;;;19.40;9.40;;;3.10;99.90;;;;;;4991408;28;20032;-45